Time;durP1;ratioP1;P1;durP2;ratioP2;P2;SDS_P1;SDS_P2;PMS_P1;PMS_P2;Temp;Humidity;BMP_temperature;BMP_pressure;BME280_temperature;BME280_humidity;BME280_pressure;Samples;Min_cycle;Max_cycle;Signal;HPM_P1;HPM_P2
2023/03/15 00:02:21;;;;;;;;;;;;;;;;;;5004990;28;19929;-77
2023/03/15 00:05:07;;;;;;;;;;;;;;;;;;5005044;28;19924;-77
2023/03/15 00:07:54;;;;;;;;;;;;;;;;;;5004701;28;19939;-78
2023/03/15 00:10:40;;;;;;;;;;;;;;;;;;4998014;28;20288;-79
2023/03/15 00:13:27;;;;;;;;;;;;;;;;;;5001174;28;19936;-79
2023/03/15 00:16:17;;;;;;;;;;;;;;;;;;5004135;28;19922;-78
2023/03/15 00:19:03;;;;;;;;;;;;;;;;;;4999755;28;19917;-78
2023/03/15 00:21:50;;;;;;;;;;;;;;;;;;5002163;28;19925;-78
2023/03/15 00:24:36;;;;;;;;;;;;;;;;;;5005207;28;19924;-78
2023/03/15 00:27:23;;;;;;;;;;;;;;;;;;4999483;28;19921;-78
2023/03/15 00:30:09;;;;;;;;;;;;;;;;;;4999700;28;19960;-78
2023/03/15 00:32:56;;;;;;;;;;;;;;;;;;5003386;28;19926;-78
2023/03/15 00:35:42;;;;;;;;;;;;;;;;;;5004489;28;19921;-78
2023/03/15 00:38:29;;;;;;;;;;;;;;;;;;5006057;28;20288;-78
2023/03/15 00:41:15;;;;;;;;;;;;;;;;;;5003140;28;19924;-78
2023/03/15 00:44:03;;;;;;;;;;;;;;;;;;5004103;28;19917;-78
2023/03/15 00:46:49;;;;;;;;;;;;;;;;;;5002731;28;19925;-78
2023/03/15 00:49:36;;;;;;;;;;;;;;;;;;5004105;28;20300;-78
2023/03/15 00:52:22;;;;;;;;;;;;;;;;;;5003380;28;19929;-78
2023/03/15 00:55:09;;;;;;;;;;;;;;;;;;5005190;28;19921;-78
2023/03/15 00:57:55;;;;;;;;;;;;;;;;;;5004438;28;19918;-78
2023/03/15 01:00:41;;;;;;;;;;;;;;;;;;5003959;28;19918;-78
2023/03/15 01:03:28;;;;;;;;;;;;;;;;;;5002807;28;19926;-77
2023/03/15 01:06:14;;;;;;;;;;;;;;;;;;5002756;28;19928;-77
2023/03/15 01:09:01;;;;;;;;;;;;;;;;;;5003872;28;20392;-78
2023/03/15 01:11:47;;;;;;;;;;;;;;;;;;4995286;28;19914;-78
2023/03/15 01:14:35;;;;;;;;;;;;;;;;;;5005087;28;20381;-77
2023/03/15 01:17:22;;;;;;;;;;;;;;;;;;4998907;28;19927;-77
2023/03/15 01:20:09;;;;;;;;;;;;;;;;;;5006104;28;19928;-78
2023/03/15 01:22:55;;;;;;;;;;;;;;;;;;5004098;28;19924;-78
2023/03/15 01:25:41;;;;;;;;;;;;;;;;;;5000851;28;20296;-78
2023/03/15 01:28:28;;;;;;;;;;;;;;;;;;4995233;28;19921;-78
2023/03/15 01:31:14;;;;;;;;;;;;;;;;;;5004366;28;19924;-77
2023/03/15 01:34:01;;;;;;;;;;;;;;;;;;5005021;28;20329;-78
2023/03/15 01:36:47;;;;;;;;;;;;;;;;;;5003857;28;19928;-77
2023/03/15 01:39:34;;;;;;;;;;;;;;;;;;5003961;28;19913;-77
2023/03/15 01:42:20;;;;;;;;;;;;;;;;;;4999084;28;20377;-77
2023/03/15 01:45:07;;;;;;;;;;;;;;;;;;5007089;28;20568;-77
2023/03/15 01:47:53;;;;;;;;;;;;;;;;;;4998402;28;19921;-78
2023/03/15 01:50:40;;;;;;;;;;;;;;;;;;5005979;28;19924;-77
2023/03/15 01:53:26;;;;;;;;;;;;;;;;;;5004026;28;19933;-78
2023/03/15 01:56:13;;;;;;;;;;;;;;;;;;5001934;28;19923;-76
2023/03/15 01:58:59;;;;;;;;;;;;;;;;;;4998318;28;19922;-78
2023/03/15 02:01:46;;;;;;;;;;;;;;;;;;4995220;28;19918;-78
2023/03/15 02:04:32;;;;;;;;;;;;;;;;;;5002927;28;19928;-78
2023/03/15 02:07:19;;;;;;;;;;;;;;;;;;5002574;28;19921;-77
2023/03/15 02:10:05;;;;;;;;;;;;;;;;;;4988142;28;19924;-77
2023/03/15 02:12:52;;;;;;;;;;;;;;;;;;5001636;28;19926;-77
2023/03/15 02:15:38;;;;;;;;;;;;;;;;;;5003319;28;19918;-77
2023/03/15 02:18:25;;;;;;;;;;;;;;;;;;4996007;28;20365;-77
2023/03/15 02:21:11;;;;;;;;;;;;;;;;;;5000601;28;20547;-78
2023/03/15 02:23:58;;;;;;;;;;;;;;;;;;5002985;28;19930;-77
2023/03/15 02:26:44;;;;;;;;;;;;;;;;;;5002233;28;19917;-77
2023/03/15 02:29:31;;;;;;;;;;;;;;;;;;5000218;28;19928;-78
2023/03/15 02:32:18;;;;;;;;;;;;;;;;;;4994018;28;19928;-76
2023/03/15 02:35:04;;;;;;;;;;;;;;;;;;5003073;28;19918;-77
2023/03/15 02:37:51;;;;;;;;;;;;;;;;;;5001656;28;20233;-76
2023/03/15 02:40:37;;;;;;;;;;;;;;;;;;5000238;28;19917;-78
2023/03/15 02:43:24;;;;;;;;;;;;;;;;;;5001649;28;19918;-78
2023/03/15 02:46:10;;;;;;;;;;;;;;;;;;5001896;28;20293;-78
2023/03/15 02:48:56;;;;;;;;;;;;;;;;;;5001600;28;19928;-77
2023/03/15 02:51:43;;;;;;;;;;;;;;;;;;5003422;28;19960;-78
2023/03/15 02:54:33;;;;;;;;;;;;;;;;;;5001462;28;20528;-78
2023/03/15 02:57:19;;;;;;;;;;;;;;;;;;5002111;28;19948;-77
2023/03/15 03:00:10;;;;;;;;;;;;;;;;;;4999529;28;19918;-79
2023/03/15 03:02:57;;;;;;;;;;;;;;;;;;4994233;28;19941;-79
2023/03/15 03:05:43;;;;;;;;;;;;;;;;;;5011116;28;19920;-78
2023/03/15 03:08:30;;;;;;;;;;;;;;;;;;5000229;28;19940;-78
2023/03/15 03:11:16;;;;;;;;;;;;;;;;;;5000533;28;19917;-78
2023/03/15 03:14:03;;;;;;;;;;;;;;;;;;5001582;28;19929;-78
2023/03/15 03:16:50;;;;;;;;;;;;;;;;;;5002602;28;19924;-82
2023/03/15 03:19:36;;;;;;;;;;;;;;;;;;4998458;28;20284;-77
2023/03/15 03:22:25;;;;;;;;;;;;;;;;;;5003926;28;20308;-76
2023/03/15 03:25:12;;;;;;;;;;;;;;;;;;5007281;28;20305;-79
2023/03/15 03:27:58;;;;;;;;;;;;;;;;;;5001229;28;20649;-78
2023/03/15 03:30:45;;;;;;;;;;;;;;;;;;4999626;28;19917;-80
2023/03/15 03:33:31;;;;;;;;;;;;;;;;;;5001927;28;19929;-78
2023/03/15 03:36:18;;;;;;;;;;;;;;;;;;5005873;28;20301;-78
2023/03/15 03:39:04;;;;;;;;;;;;;;;;;;5005492;28;19921;-78
2023/03/15 03:41:51;;;;;;;;;;;;;;;;;;5006000;28;19917;-78
2023/03/15 03:44:37;;;;;;;;;;;;;;;;;;5005133;28;19917;-78
2023/03/15 03:47:24;;;;;;;;;;;;;;;;;;5007021;28;19921;-77
2023/03/15 03:50:10;;;;;;;;;;;;;;;;;;5005683;28;19925;-78
2023/03/15 03:52:57;;;;;;;;;;;;;;;;;;4998219;28;20243;-78
2023/03/15 03:55:45;;;;;;;;;;;;;;;;;;5008338;28;19921;-78
2023/03/15 03:58:31;;;;;;;;;;;;;;;;;;5004371;28;19928;-78
2023/03/15 04:01:18;;;;;;;;;;;;;;;;;;4999943;28;19917;-77
2023/03/15 04:04:05;;;;;;;;;;;;;;;;;;5005841;28;19929;-78
2023/03/15 04:06:53;;;;;;;;;;;;;;;;;;5001569;28;19917;-78
2023/03/15 04:09:40;;;;;;;;;;;;;;;;;;5005926;28;19924;-77
2023/03/15 04:12:27;;;;;;;;;;;;;;;;;;5004561;28;19925;-78
2023/03/15 04:15:13;;;;;;;;;;;;;;;;;;5007203;28;19917;-78
2023/03/15 04:18:04;;;;;;;;;;;;;;;;;;5012815;28;20330;-78
2023/03/15 04:20:53;;;;;;;;;;;;;;;;;;5002306;28;19917;-77
2023/03/15 04:23:39;;;;;;;;;;;;;;;;;;4997732;28;20377;-78
2023/03/15 04:26:26;;;;;;;;;;;;;;;;;;5003028;28;19924;-78
2023/03/15 04:29:14;;;;;;;;;;;;;;;;;;5005321;28;19917;-78
2023/03/15 04:32:00;;;;;;;;;;;;;;;;;;5002049;28;19932;-78
2023/03/15 04:34:50;;;;;;;;;;;;;;;;;;5003438;28;19935;-79
2023/03/15 04:37:36;;;;;;;;;;;;;;;;;;4994560;28;20472;-79
2023/03/15 04:40:28;;;;;;;;;;;;;;;;;;5001573;28;19918;-78
2023/03/15 04:43:18;;;;;;;;;;;;;;;;;;5002843;28;20373;-78
2023/03/15 04:46:04;;;;;;;;;;;;;;;;;;5000376;28;19921;-78
2023/03/15 04:48:51;;;;;;;;;;;;;;;;;;5002796;28;19928;-78
2023/03/15 04:51:37;;;;;;;;;;;;;;;;;;5003847;28;19927;-77
2023/03/15 04:54:24;;;;;;;;;;;;;;;;;;4997387;28;20377;-77
2023/03/15 04:57:10;;;;;;;;;;;;;;;;;;5006648;28;20357;-76
2023/03/15 04:59:57;;;;;;;;;;;;;;;;;;5003626;28;19924;-76
2023/03/15 05:02:43;;;;;;;;;;;;;;;;;;5001876;28;19936;-77
2023/03/15 05:05:30;;;;;;;;;;;;;;;;;;5003970;28;19944;-77
2023/03/15 05:08:16;;;;;;;;;;;;;;;;;;4999644;28;19929;-77
2023/03/15 05:11:02;;;;;;;;;;;;;;;;;;5003585;28;20324;-78
2023/03/15 05:13:49;;;;;;;;;;;;;;;;;;5003647;28;20589;-77
2023/03/15 05:16:35;;;;;;;;;;;;;;;;;;5000909;28;19976;-79
2023/03/15 05:19:22;;;;;;;;;;;;;;;;;;4996658;28;19929;-78
2023/03/15 05:22:08;;;;;;;;;;;;;;;;;;5000773;28;19918;-78
2023/03/15 05:24:55;;;;;;;;;;;;;;;;;;5003453;28;20387;-79
2023/03/15 05:27:45;;;;;;;;;;;;;;;;;;5003577;28;19922;-78
2023/03/15 05:30:31;;;;;;;;;;;;;;;;;;4995361;28;20353;-78
2023/03/15 05:33:18;;;;;;;;;;;;;;;;;;5003749;28;20391;-77
2023/03/15 05:36:04;;;;;;;;;;;;;;;;;;5003887;28;19939;-77
2023/03/15 05:38:51;;;;;;;;;;;;;;;;;;4998433;28;19928;-77
2023/03/15 05:41:37;;;;;;;;;;;;;;;;;;5003155;28;19917;-78
2023/03/15 05:44:24;;;;;;;;;;;;;;;;;;5000558;28;20380;-78
2023/03/15 05:47:10;;;;;;;;;;;;;;;;;;5003985;28;20109;-78
2023/03/15 05:49:57;;;;;;;;;;;;;;;;;;5001088;28;20737;-78
2023/03/15 05:52:43;;;;;;;;;;;;;;;;;;5005632;28;19921;-78
2023/03/15 05:55:29;;;;;;;;;;;;;;;;;;4998610;28;19922;-77
2023/03/15 05:58:16;;;;;;;;;;;;;;;;;;5002593;28;20289;-77
2023/03/15 06:01:03;;;;;;;;;;;;;;;;;;5003093;28;19918;-78
2023/03/15 06:03:49;;;;;;;;;;;;;;;;;;5001896;28;19935;-77
2023/03/15 06:06:35;;;;;;;;;;;;;;;;;;4997924;28;20295;-77
2023/03/15 06:09:22;;;;;;;;;;;;;;;;;;4988376;28;19918;-77
2023/03/15 06:12:08;;;;;;;;;;;;;;;;;;5001948;28;19952;-78
2023/03/15 06:14:55;;;;;;;;;;;;;;;;;;5002121;28;19944;-78
2023/03/15 06:17:41;;;;;;;;;;;;;;;;;;4995817;28;19921;-79
2023/03/15 06:20:28;;;;;;;;;;;;;;;;;;5003587;28;20285;-78
2023/03/15 06:23:14;;;;;;;;;;;;;;;;;;5003399;28;20802;-78
2023/03/15 06:26:01;;;;;;;;;;;;;;;;;;5001865;28;19927;-80
2023/03/15 06:28:47;;;;;;;;;;;;;;;;;;4999526;28;19956;-78
2023/03/15 06:31:34;;;;;;;;;;;;;;;;;;5002051;28;19917;-79
2023/03/15 06:34:20;;;;;;;;;;;;;;;;;;5001720;28;19929;-78
2023/03/15 06:37:07;;;;;;;;;;;;;;;;;;4996494;28;20376;-79
2023/03/15 06:39:53;;;;;;;;;;;;;;;;;;4998074;28;19921;-79
2023/03/15 06:42:40;;;;;;;;;;;;;;;;;;5000584;28;19921;-79
2023/03/15 06:45:26;;;;;;;;;;;;;;;;;;4997040;28;20254;-79
2023/03/15 06:48:13;;;;;;;;;;;;;;;;;;5003013;28;19922;-79
2023/03/15 06:50:59;;;;;;;;;;;;;;;;;;5001416;28;19917;-79
2023/03/15 06:53:46;;;;;;;;;;;;;;;;;;5002259;28;20023;-78
2023/03/15 06:56:36;;;;;;;;;;;;;;;;;;4998921;28;19921;-78
2023/03/15 06:59:22;;;;;;;;;;;;;;;;;;5001246;28;19924;-78
2023/03/15 07:02:09;;;;;;;;;;;;;;;;;;5001638;28;19929;-78
2023/03/15 07:04:55;;;;;;;;;;;;;;;;;;4995887;28;19917;-79
2023/03/15 07:07:42;;;;;;;;;;;;;;;;;;4990790;28;19932;-79
2023/03/15 07:10:28;;;;;;;;;;;;;;;;;;5005844;28;19922;-79
2023/03/15 07:13:15;;;;;;;;;;;;;;;;;;5004112;28;20309;-78
2023/03/15 07:16:01;;;;;;;;;;;;;;;;;;4985418;28;19922;-79
2023/03/15 07:18:49;;;;;;;;;;;;;;;;;;5005912;28;20374;-78
2023/03/15 07:21:35;;;;;;;;;;;;;;;;;;5004599;28;19926;-78
2023/03/15 07:24:22;;;;;;;;;;;;;;;;;;5005605;28;19922;-78
2023/03/15 07:27:08;;;;;;;;;;;;;;;;;;5004910;28;19921;-78
2023/03/15 07:29:55;;;;;;;;;;;;;;;;;;5004546;28;19921;-79
2023/03/15 07:32:41;;;;;;;;;;;;;;;;;;5004667;28;19917;-78
2023/03/15 07:35:28;;;;;;;;;;;;;;;;;;5005664;28;19918;-78
2023/03/15 07:38:14;;;;;;;;;;;;;;;;;;5007575;28;19940;-79
2023/03/15 07:41:01;;;;;;;;;;;;;;;;;;4983621;28;19929;-78
2023/03/15 07:43:47;;;;;;;;;;;;;;;;;;5000776;28;19924;-79
2023/03/15 07:46:34;;;;;;;;;;;;;;;;;;5005221;28;19922;-78
2023/03/15 07:49:20;;;;;;;;;;;;;;;;;;5001485;28;19921;-78
2023/03/15 07:52:07;;;;;;;;;;;;;;;;;;5003301;28;19928;-78
2023/03/15 07:54:53;;;;;;;;;;;;;;;;;;5003550;28;19936;-78
2023/03/15 07:57:40;;;;;;;;;;;;;;;;;;5005786;28;19921;-79
2023/03/15 08:00:26;;;;;;;;;;;;;;;;;;5003331;28;19924;-78
2023/03/15 08:03:13;;;;;;;;;;;;;;;;;;5006744;28;19929;-79
2023/03/15 08:05:59;;;;;;;;;;;;;;;;;;5003567;28;20398;-78
2023/03/15 08:08:46;;;;;;;;;;;;;;;;;;5001804;28;19928;-78
2023/03/15 08:11:32;;;;;;;;;;;;;;;;;;5003083;28;19925;-78
2023/03/15 08:14:19;;;;;;;;;;;;;;;;;;5004755;28;19940;-78
2023/03/15 08:17:05;;;;;;;;;;;;;;;;;;5005372;28;19921;-78
2023/03/15 08:19:52;;;;;;;;;;;;;;;;;;5002740;28;19931;-78
2023/03/15 08:22:38;;;;;;;;;;;;;;;;;;5004189;28;19940;-78
2023/03/15 08:25:25;;;;;;;;;;;;;;;;;;5003315;28;19928;-78
2023/03/15 08:28:11;;;;;;;;;;;;;;;;;;5008812;28;19918;-78
2023/03/15 08:30:58;;;;;;;;;;;;;;;;;;5004392;28;19921;-78
2023/03/15 08:33:44;;;;;;;;;;;;;;;;;;5002440;28;19935;-78
2023/03/15 08:36:31;;;;;;;;;;;;;;;;;;5003113;28;19917;-78
2023/03/15 08:39:17;;;;;;;;;;;;;;;;;;5002139;28;20263;-78
2023/03/15 08:42:04;;;;;;;;;;;;;;;;;;5003960;28;19921;-79
2023/03/15 08:44:50;;;;;;;;;;;;;;;;;;5003282;28;19932;-79
2023/03/15 08:47:37;;;;;;;;;;;;;;;;;;5003286;28;20391;-78
2023/03/15 08:50:23;;;;;;;;;;;;;;;;;;5002604;28;19921;-78
2023/03/15 08:53:10;;;;;;;;;;;;;;;;;;5004079;28;19934;-79
2023/03/15 08:55:56;;;;;;;;;;;;;;;;;;5004321;28;19922;-78
2023/03/15 08:58:43;;;;;;;;;;;;;;;;;;5003901;28;19925;-78
2023/03/15 09:01:29;;;;;;;;;;;;;;;;;;5002820;28;20527;-78
2023/03/15 09:04:16;;;;;;;;;;;;;;;;;;4963952;28;19926;-77
2023/03/15 09:07:02;;;;;;;;;;;;;;;;;;4977727;28;19921;-78
2023/03/15 09:09:49;;;;;;;;;;;;;;;;;;4963399;28;19962;-78
2023/03/15 09:12:35;;;;;;;;;;;;;;;;;;4957450;28;20282;-78
2023/03/15 09:15:22;;;;;;;;;;;;;;;;;;4964195;28;19937;-78
2023/03/15 09:18:08;;;;;;;;;;;;;;;;;;4965264;28;19922;-78
2023/03/15 09:20:55;;;;;;;;;;;;;;;;;;4962575;28;19944;-79
2023/03/15 09:23:41;;;;;;;;;;;;;;;;;;4966122;28;19925;-79
2023/03/15 09:26:28;;;;;;;;;;;;;;;;;;4963138;28;19914;-79
2023/03/15 09:29:14;;;;;;;;;;;;;;;;;;4965726;28;19926;-78
2023/03/15 09:32:01;;;;;;;;;;;;;;;;;;4965546;28;20290;-78
2023/03/15 09:34:48;;;;;;;;;;;;;;;;;;4964227;28;19937;-77
2023/03/15 09:37:35;;;;;;;;;;;;;;;;;;4964616;28;19928;-78
2023/03/15 09:40:21;;;;;;;;;;;;;;;;;;4965027;28;19932;-78
2023/03/15 09:43:09;;;;;;;;;;;;;;;;;;4964067;28;20361;-78
2023/03/15 09:45:55;;;;;;;;;;;;;;;;;;4965156;28;19922;-78
2023/03/15 09:48:41;;;;;;;;;;;;;;;;;;4970751;28;19929;-79
2023/03/15 09:51:29;;;;;;;;;;;;;;;;;;4964842;28;19918;-78
2023/03/15 09:54:15;;;;;;;;;;;;;;;;;;4963483;28;19926;-77
2023/03/15 09:57:02;;;;;;;;;;;;;;;;;;4963304;28;19926;-78
2023/03/15 09:59:48;;;;;;;;;;;;;;;;;;4963124;28;19922;-78
2023/03/15 10:02:35;;;;;;;;;;;;;;;;;;4980061;28;20329;-77
2023/03/15 10:05:21;;;;;;;;;;;;;;;;;;5001860;28;19921;-77
2023/03/15 10:08:07;;;;;;;;;;;;;;;;;;5000909;28;19928;-77
2023/03/15 10:10:54;;;;;;;;;;;;;;;;;;5002356;28;19928;-81
2023/03/15 10:13:41;;;;;;;;;;;;;;;;;;5001554;28;19936;-77
2023/03/15 10:16:27;;;;;;;;;;;;;;;;;;5001132;28;19922;-77
2023/03/15 10:19:14;;;;;;;;;;;;;;;;;;5001100;28;20414;-78
2023/03/15 10:22:01;;;;;;;;;;;;;;;;;;5004284;28;20364;-78
2023/03/15 10:24:47;;;;;;;;;;;;;;;;;;5002081;28;19929;-78
2023/03/15 10:27:34;;;;;;;;;;;;;;;;;;4999593;28;19921;-77
2023/03/15 10:30:20;;;;;;;;;;;;;;;;;;4998715;28;19925;-77
2023/03/15 10:33:07;;;;;;;;;;;;;;;;;;5003231;28;19925;-76
2023/03/15 10:35:53;;;;;;;;;;;;;;;;;;5000688;28;19928;-77
2023/03/15 10:38:41;;;;;;;;;;;;;;;;;;4998958;28;19924;-77
2023/03/15 10:41:28;;;;;;;;;;;;;;;;;;4996162;28;20260;-78
2023/03/15 10:44:14;;;;;;;;;;;;;;;;;;5002261;28;19921;-78
2023/03/15 10:47:01;;;;;;;;;;;;;;;;;;5000196;28;19917;-78
2023/03/15 10:49:48;;;;;;;;;;;;;;;;;;5002805;28;19928;-78
2023/03/15 10:52:34;;;;;;;;;;;;;;;;;;5002183;28;19927;-78
2023/03/15 10:55:21;;;;;;;;;;;;;;;;;;4998876;28;19932;-78
2023/03/15 10:58:07;;;;;;;;;;;;;;;;;;5000174;28;19921;-78
2023/03/15 11:00:53;;;;;;;;;;;;;;;;;;5002486;28;19921;-78
2023/03/15 11:03:40;;;;;;;;;;;;;;;;;;4999870;28;20024;-78
2023/03/15 11:06:27;;;;;;;;;;;;;;;;;;5001770;28;19929;-78
2023/03/15 11:09:14;;;;;;;;;;;;;;;;;;4997355;28;19932;-78
2023/03/15 11:12:00;;;;;;;;;;;;;;;;;;5000145;28;20034;-78
2023/03/15 11:14:47;;;;;;;;;;;;;;;;;;4998833;28;19949;-78
2023/03/15 11:17:33;;;;;;;;;;;;;;;;;;5001525;28;19922;-78
2023/03/15 11:20:20;;;;;;;;;;;;;;;;;;5000318;28;19928;-77
2023/03/15 11:23:06;;;;;;;;;;;;;;;;;;4999826;28;19921;-78
2023/03/15 11:25:53;;;;;;;;;;;;;;;;;;4999473;28;19918;-78
2023/03/15 11:28:39;;;;;;;;;;;;;;;;;;5005089;28;19917;-78
2023/03/15 11:31:26;;;;;;;;;;;;;;;;;;5001071;28;19927;-78
2023/03/15 11:34:12;;;;;;;;;;;;;;;;;;5007295;28;20331;-77
2023/03/15 11:36:59;;;;;;;;;;;;;;;;;;5000152;28;19922;-78
2023/03/15 11:39:45;;;;;;;;;;;;;;;;;;5000210;28;19921;-77
2023/03/15 11:42:32;;;;;;;;;;;;;;;;;;5000226;28;20511;-78
2023/03/15 11:45:19;;;;;;;;;;;;;;;;;;4995871;28;19924;-77
2023/03/15 11:48:05;;;;;;;;;;;;;;;;;;5001500;28;20513;-78
2023/03/15 11:50:52;;;;;;;;;;;;;;;;;;5000562;28;19956;-78
2023/03/15 11:53:38;;;;;;;;;;;;;;;;;;5003224;28;19933;-78
2023/03/15 11:56:25;;;;;;;;;;;;;;;;;;5005451;28;19936;-77
2023/03/15 11:59:11;;;;;;;;;;;;;;;;;;5003610;28;20258;-78
2023/03/15 12:01:58;;;;;;;;;;;;;;;;;;5004032;28;19921;-77
2023/03/15 12:04:44;;;;;;;;;;;;;;;;;;5004608;28;19921;-78
2023/03/15 12:07:31;;;;;;;;;;;;;;;;;;5004485;28;19918;-78
2023/03/15 12:10:18;;;;;;;;;;;;;;;;;;4972678;28;19917;-78
2023/03/15 12:13:04;;;;;;;;;;;;;;;;;;5006507;28;19925;-78
2023/03/15 12:15:50;;;;;;;;;;;;;;;;;;5002251;28;19930;-78
2023/03/15 12:18:37;;;;;;;;;;;;;;;;;;5003862;28;20376;-78
2023/03/15 12:21:23;;;;;;;;;;;;;;;;;;5003751;28;19921;-77
2023/03/15 12:24:13;;;;;;;;;;;;;;;;;;5002411;28;19952;-77
2023/03/15 12:26:59;;;;;;;;;;;;;;;;;;4996276;28;19917;-78
2023/03/15 12:29:46;;;;;;;;;;;;;;;;;;5004571;28;20242;-78
2023/03/15 12:32:32;;;;;;;;;;;;;;;;;;5003502;28;19926;-78
2023/03/15 12:35:19;;;;;;;;;;;;;;;;;;4994717;28;19937;-80
2023/03/15 12:38:05;;;;;;;;;;;;;;;;;;4999860;28;19917;-79
2023/03/15 12:40:52;;;;;;;;;;;;;;;;;;5001112;28;20029;-78
2023/03/15 12:43:38;;;;;;;;;;;;;;;;;;5001599;28;19937;-79
2023/03/15 12:46:25;;;;;;;;;;;;;;;;;;5002301;28;20297;-78
2023/03/15 12:49:11;;;;;;;;;;;;;;;;;;4992631;28;19925;-78
2023/03/15 12:51:58;;;;;;;;;;;;;;;;;;5002012;28;19921;-78
2023/03/15 12:54:44;;;;;;;;;;;;;;;;;;4995745;28;20471;-79
2023/03/15 12:57:31;;;;;;;;;;;;;;;;;;5002739;28;19914;-79
2023/03/15 13:00:17;;;;;;;;;;;;;;;;;;5003819;28;19922;-78
2023/03/15 13:03:04;;;;;;;;;;;;;;;;;;5004377;28;19952;-80
2023/03/15 13:05:50;;;;;;;;;;;;;;;;;;5003873;28;19929;-79
2023/03/15 13:08:37;;;;;;;;;;;;;;;;;;5003033;28;19924;-79
2023/03/15 13:11:24;;;;;;;;;;;;;;;;;;5002012;28;19929;-79
2023/03/15 13:14:11;;;;;;;;;;;;;;;;;;5004119;28;19930;-79
2023/03/15 13:16:57;;;;;;;;;;;;;;;;;;5000979;28;19921;-79
2023/03/15 13:19:44;;;;;;;;;;;;;;;;;;4997913;28;19926;-79
2023/03/15 13:22:30;;;;;;;;;;;;;;;;;;5000372;28;19917;-79
2023/03/15 13:25:17;;;;;;;;;;;;;;;;;;5004161;28;19921;-78
2023/03/15 13:28:03;;;;;;;;;;;;;;;;;;4998941;28;19944;-79
2023/03/15 13:30:51;;;;;;;;;;;;;;;;;;5001344;28;19921;-78
2023/03/15 13:33:37;;;;;;;;;;;;;;;;;;4999772;28;19928;-78
2023/03/15 13:36:24;;;;;;;;;;;;;;;;;;5001356;28;19921;-79
2023/03/15 13:39:10;;;;;;;;;;;;;;;;;;5003724;28;20411;-79
2023/03/15 13:41:57;;;;;;;;;;;;;;;;;;5003813;28;19924;-79
2023/03/15 13:44:43;;;;;;;;;;;;;;;;;;5006321;28;20005;-79
2023/03/15 13:47:30;;;;;;;;;;;;;;;;;;4998675;28;19922;-79
2023/03/15 13:50:16;;;;;;;;;;;;;;;;;;5003383;28;19925;-78
2023/03/15 13:53:03;;;;;;;;;;;;;;;;;;5004306;28;19925;-79
2023/03/15 13:55:49;;;;;;;;;;;;;;;;;;5003795;28;19933;-79
2023/03/15 13:58:36;;;;;;;;;;;;;;;;;;5011882;28;19929;-80
2023/03/15 14:01:22;;;;;;;;;;;;;;;;;;5001995;28;19922;-84
2023/03/15 14:04:10;;;;;;;;;;;;;;;;;;5003604;28;20400;-79
2023/03/15 14:06:56;;;;;;;;;;;;;;;;;;5001808;28;19960;-79
2023/03/15 14:09:42;;;;;;;;;;;;;;;;;;5001450;28;19929;-79
2023/03/15 14:12:29;;;;;;;;;;;;;;;;;;5000847;28;19945;-79
2023/03/15 14:15:15;;;;;;;;;;;;;;;;;;4999698;28;19941;-79
2023/03/15 14:18:02;;;;;;;;;;;;;;;;;;5001765;28;19914;-79
2023/03/15 14:20:48;;;;;;;;;;;;;;;;;;4999146;28;19928;-79
2023/03/15 14:23:35;;;;;;;;;;;;;;;;;;4999236;28;19918;-79
2023/03/15 14:26:21;;;;;;;;;;;;;;;;;;5001974;28;20458;-79
2023/03/15 14:29:08;;;;;;;;;;;;;;;;;;5001548;28;19921;-79
2023/03/15 14:31:54;;;;;;;;;;;;;;;;;;4999186;28;19921;-79
2023/03/15 14:34:41;;;;;;;;;;;;;;;;;;5001034;28;19926;-79
2023/03/15 14:37:27;;;;;;;;;;;;;;;;;;4999529;28;19921;-79
2023/03/15 14:40:14;;;;;;;;;;;;;;;;;;5000680;28;19921;-79
2023/03/15 14:43:01;;;;;;;;;;;;;;;;;;5001309;28;19917;-79
2023/03/15 14:45:47;;;;;;;;;;;;;;;;;;5000231;28;19918;-79
2023/03/15 14:48:34;;;;;;;;;;;;;;;;;;5000242;28;19926;-79
2023/03/15 14:51:20;;;;;;;;;;;;;;;;;;5002533;28;19933;-79
2023/03/15 14:54:07;;;;;;;;;;;;;;;;;;5000236;28;19949;-79
2023/03/15 14:56:54;;;;;;;;;;;;;;;;;;4998184;28;19932;-79
2023/03/15 14:59:40;;;;;;;;;;;;;;;;;;4998141;28;19921;-79
2023/03/15 15:02:26;;;;;;;;;;;;;;;;;;4999484;28;19964;-79
2023/03/15 15:05:13;;;;;;;;;;;;;;;;;;5003600;28;19941;-79
2023/03/15 15:08:00;;;;;;;;;;;;;;;;;;5000708;28;19928;-79
2023/03/15 15:10:46;;;;;;;;;;;;;;;;;;5002283;28;20620;-79
2023/03/15 15:13:33;;;;;;;;;;;;;;;;;;5001843;28;20400;-79
2023/03/15 15:16:19;;;;;;;;;;;;;;;;;;4999645;28;19948;-79
2023/03/15 15:19:06;;;;;;;;;;;;;;;;;;5002114;28;19966;-79
2023/03/15 15:21:52;;;;;;;;;;;;;;;;;;4998484;28;19932;-79
2023/03/15 15:24:39;;;;;;;;;;;;;;;;;;5003452;28;20384;-79
2023/03/15 15:27:25;;;;;;;;;;;;;;;;;;5003977;28;20012;-79
2023/03/15 15:30:12;;;;;;;;;;;;;;;;;;5005872;28;19929;-80
2023/03/15 15:32:59;;;;;;;;;;;;;;;;;;5005297;28;20016;-79
2023/03/15 15:35:45;;;;;;;;;;;;;;;;;;5004383;28;19929;-79
2023/03/15 15:38:36;;;;;;;;;;;;;;;;;;5006826;28;19922;-79
2023/03/15 15:41:23;;;;;;;;;;;;;;;;;;5002689;28;19921;-79
2023/03/15 15:44:09;;;;;;;;;;;;;;;;;;5005274;28;19918;-79
2023/03/15 15:46:56;;;;;;;;;;;;;;;;;;5009977;28;20399;-79
2023/03/15 15:49:43;;;;;;;;;;;;;;;;;;5004198;28;19921;-79
2023/03/15 15:52:29;;;;;;;;;;;;;;;;;;5003870;28;20360;-79
2023/03/15 15:55:16;;;;;;;;;;;;;;;;;;5000060;28;20337;-77
2023/03/15 15:58:02;;;;;;;;;;;;;;;;;;5002695;28;19925;-78
2023/03/15 16:00:48;;;;;;;;;;;;;;;;;;5000503;28;19921;-78
2023/03/15 16:03:36;;;;;;;;;;;;;;;;;;5002962;28;20586;-80
2023/03/15 16:06:22;;;;;;;;;;;;;;;;;;5004243;28;19921;-79
2023/03/15 16:09:09;;;;;;;;;;;;;;;;;;5002003;28;19922;-78
2023/03/15 16:11:55;;;;;;;;;;;;;;;;;;5002071;28;20253;-78
2023/03/15 16:14:41;;;;;;;;;;;;;;;;;;5004802;28;19926;-78
2023/03/15 16:17:28;;;;;;;;;;;;;;;;;;5005851;28;19928;-78
2023/03/15 16:20:15;;;;;;;;;;;;;;;;;;5002012;28;20396;-78
2023/03/15 16:23:01;;;;;;;;;;;;;;;;;;5007488;28;19917;-79
2023/03/15 16:25:48;;;;;;;;;;;;;;;;;;5001151;28;19921;-80
2023/03/15 16:28:34;;;;;;;;;;;;;;;;;;5001535;28;19921;-79
2023/03/15 16:31:21;;;;;;;;;;;;;;;;;;5002645;28;20593;-79
2023/03/15 16:34:07;;;;;;;;;;;;;;;;;;5000873;28;19928;-79
2023/03/15 16:36:54;;;;;;;;;;;;;;;;;;4995960;28;19922;-79
2023/03/15 16:39:40;;;;;;;;;;;;;;;;;;5003232;28;19917;-79
2023/03/15 16:42:26;;;;;;;;;;;;;;;;;;5005898;28;19920;-79
2023/03/15 16:45:13;;;;;;;;;;;;;;;;;;5003698;28;19925;-79
2023/03/15 16:48:00;;;;;;;;;;;;;;;;;;5004987;28;19918;-81
2023/03/15 16:50:47;;;;;;;;;;;;;;;;;;5007840;28;19917;-80
2023/03/15 16:53:36;;;;;;;;;;;;;;;;;;4998155;28;20320;-80
2023/03/15 16:56:22;;;;;;;;;;;;;;;;;;5005939;28;20317;-81
2023/03/15 16:59:11;;;;;;;;;;;;;;;;;;5002121;28;19922;-81
2023/03/15 17:01:57;;;;;;;;;;;;;;;;;;5000916;28;19922;-80
2023/03/15 17:04:44;;;;;;;;;;;;;;;;;;5004179;28;20376;-79
2023/03/15 17:07:31;;;;;;;;;;;;;;;;;;4994176;28;20361;-78
2023/03/15 17:10:17;;;;;;;;;;;;;;;;;;5004105;28;19925;-78
2023/03/15 17:13:04;;;;;;;;;;;;;;;;;;5003879;28;19925;-78
2023/03/15 17:15:50;;;;;;;;;;;;;;;;;;4997094;28;20370;-79
2023/03/15 17:18:37;;;;;;;;;;;;;;;;;;5003396;28;19917;-78
2023/03/15 17:21:23;;;;;;;;;;;;;;;;;;4998779;28;20145;-80
2023/03/15 17:24:10;;;;;;;;;;;;;;;;;;5003957;28;19918;-77
2023/03/15 17:26:56;;;;;;;;;;;;;;;;;;4999322;28;20516;-79
2023/03/15 17:29:43;;;;;;;;;;;;;;;;;;5004465;28;19922;-79
2023/03/15 17:32:29;;;;;;;;;;;;;;;;;;5000398;28;19968;-77
2023/03/15 17:35:16;;;;;;;;;;;;;;;;;;5004445;28;19926;-85
2023/03/15 17:38:03;;;;;;;;;;;;;;;;;;5001500;28;19922;-77
2023/03/15 17:40:50;;;;;;;;;;;;;;;;;;5001274;28;19964;-79
2023/03/15 17:43:36;;;;;;;;;;;;;;;;;;5004070;28;19918;-80
2023/03/15 17:46:31;;;;;;;;;;;;;;;;;;5004349;28;19918;-79
2023/03/15 17:49:18;;;;;;;;;;;;;;;;;;5003172;28;19925;-78
2023/03/15 17:52:04;;;;;;;;;;;;;;;;;;5002464;28;20309;-78
2023/03/15 17:54:51;;;;;;;;;;;;;;;;;;4999493;28;19933;-77
2023/03/15 17:57:37;;;;;;;;;;;;;;;;;;5002323;28;19944;-78
2023/03/15 18:00:24;;;;;;;;;;;;;;;;;;5004175;28;20378;-78
2023/03/15 18:03:10;;;;;;;;;;;;;;;;;;4998517;28;19929;-78
2023/03/15 18:06:00;;;;;;;;;;;;;;;;;;5000194;28;20376;-77
2023/03/15 18:08:46;;;;;;;;;;;;;;;;;;5000958;28;19925;-80
2023/03/15 18:11:34;;;;;;;;;;;;;;;;;;5000711;28;19928;-79
2023/03/15 18:14:21;;;;;;;;;;;;;;;;;;5003715;28;19929;-79
2023/03/15 18:17:07;;;;;;;;;;;;;;;;;;5000336;28;19922;-80
2023/03/15 18:19:54;;;;;;;;;;;;;;;;;;5002651;28;20443;-79
2023/03/15 18:22:40;;;;;;;;;;;;;;;;;;5002876;28;19929;-76
2023/03/15 18:25:27;;;;;;;;;;;;;;;;;;5008118;28;19913;-76
2023/03/15 18:28:13;;;;;;;;;;;;;;;;;;4994438;28;19924;-77
2023/03/15 18:30:59;;;;;;;;;;;;;;;;;;5004326;28;19925;-76
2023/03/15 18:33:46;;;;;;;;;;;;;;;;;;5004093;28;19917;-78
2023/03/15 18:36:32;;;;;;;;;;;;;;;;;;5004535;28;19937;-78
2023/03/15 18:39:20;;;;;;;;;;;;;;;;;;5002347;28;20333;-79
2023/03/15 18:42:07;;;;;;;;;;;;;;;;;;5001017;28;19921;-78
2023/03/15 18:44:53;;;;;;;;;;;;;;;;;;4990218;28;19921;-78
2023/03/15 18:47:40;;;;;;;;;;;;;;;;;;4999949;28;19929;-78
2023/03/15 18:50:26;;;;;;;;;;;;;;;;;;5001022;28;19918;-79
2023/03/15 18:53:13;;;;;;;;;;;;;;;;;;4998641;28;19918;-77
2023/03/15 18:56:00;;;;;;;;;;;;;;;;;;5001597;28;19932;-78
2023/03/15 18:58:47;;;;;;;;;;;;;;;;;;5002071;28;19924;-78